createdAt,value
2023-01-31T00:04:04.392Z,11.98
2023-01-31T00:09:10.116Z,11.72
2023-01-31T00:14:19.012Z,10.87
2023-01-31T00:19:22.218Z,10.21
2023-01-31T00:24:25.353Z,9.85
2023-01-31T00:29:29.461Z,9.83
2023-01-31T00:34:32.592Z,9.85
2023-01-31T00:39:36.278Z,10.03
2023-01-31T00:44:40.530Z,10.31
2023-01-31T00:49:43.633Z,10.61
2023-01-31T00:54:47.130Z,10.88
2023-01-31T00:59:50.565Z,11.02
2023-01-31T01:04:53.792Z,10.76
2023-01-31T01:09:57.229Z,10.51
2023-01-31T01:15:00.506Z,10.26
2023-01-31T01:20:03.973Z,9.89
2023-01-31T01:25:08.111Z,9.55
2023-01-31T01:30:12.695Z,9.30
2023-01-31T01:35:16.189Z,9.28
2023-01-31T01:40:19.337Z,9.42
2023-01-31T01:45:23.146Z,9.60
2023-01-31T01:50:36.931Z,9.75
2023-01-31T01:56:03.986Z,9.64
2023-01-31T02:01:08.735Z,9.61
2023-01-31T02:06:13.071Z,9.72
2023-01-31T02:11:25.090Z,9.93
2023-01-31T02:16:29.271Z,10.19
2023-01-31T02:21:47.543Z,10.54
2023-01-31T02:27:31.037Z,10.73
2023-01-31T02:32:58.663Z,10.79
2023-01-31T02:38:11.064Z,10.83
2023-01-31T02:43:26.328Z,10.96
2023-01-31T02:48:44.121Z,11.11
2023-01-31T02:53:56.324Z,11.23
2023-01-31T02:59:10.717Z,11.34
2023-01-31T03:04:15.154Z,11.45
2023-01-31T03:09:20.227Z,11.54
2023-01-31T03:14:32.057Z,11.59
2023-01-31T03:20:02.930Z,11.69
2023-01-31T03:25:12.661Z,11.74
2023-01-31T03:30:36.808Z,11.77
2023-01-31T03:35:43.230Z,11.82
2023-01-31T03:41:18.656Z,11.72
2023-01-31T03:46:31.632Z,11.15
2023-01-31T03:51:37.475Z,10.63
2023-01-31T03:57:01.569Z,10.43
2023-01-31T04:02:09.124Z,10.53
2023-01-31T04:07:12.611Z,10.70
2023-01-31T04:12:16.594Z,10.78
2023-01-31T04:17:19.779Z,10.78
2023-01-31T04:22:23.306Z,10.72
2023-01-31T04:27:26.345Z,10.42
2023-01-31T04:32:29.477Z,10.12
2023-01-31T04:37:33.043Z,9.70
2023-01-31T04:42:36.523Z,9.52
2023-01-31T04:47:39.693Z,9.46
2023-01-31T04:52:43.248Z,9.38
2023-01-31T04:57:46.474Z,9.14
2023-01-31T05:02:49.744Z,8.96
2023-01-31T05:07:52.895Z,8.91
2023-01-31T05:12:56.035Z,8.84
2023-01-31T05:17:59.344Z,8.82
2023-01-31T05:23:02.823Z,8.89
2023-01-31T05:28:06.140Z,9.04
2023-01-31T05:33:10.571Z,9.09
2023-01-31T05:38:15.974Z,9.12
2023-01-31T05:43:19.626Z,9.12
2023-01-31T05:48:22.907Z,9.13
2023-01-31T05:53:26.038Z,9.21
2023-01-31T05:58:29.267Z,9.30
2023-01-31T06:03:32.483Z,9.37
2023-01-31T06:08:35.673Z,9.43
2023-01-31T06:13:40.041Z,9.47
2023-01-31T06:18:43.285Z,9.49
2023-01-31T06:23:48.030Z,9.55
2023-01-31T06:28:51.029Z,9.54
2023-01-31T06:33:54.482Z,9.54
2023-01-31T06:38:58.148Z,9.54
2023-01-31T06:44:01.365Z,9.60
2023-01-31T06:49:04.563Z,9.75
2023-01-31T06:54:07.894Z,9.96
2023-01-31T06:59:11.057Z,10.02
2023-01-31T07:04:14.555Z,10.00
2023-01-31T07:09:17.834Z,9.96
2023-01-31T07:14:21.072Z,9.99
2023-01-31T07:19:24.748Z,10.10
2023-01-31T07:24:27.857Z,10.29
2023-01-31T07:29:31.329Z,10.53
2023-01-31T07:34:34.675Z,10.69
2023-01-31T07:39:37.583Z,10.79
2023-01-31T07:44:40.551Z,10.88
2023-01-31T07:49:43.718Z,11.00
2023-01-31T07:54:47.643Z,11.12
2023-01-31T07:59:51.154Z,11.19
2023-01-31T08:04:54.217Z,11.31
2023-01-31T08:09:57.110Z,11.28
2023-01-31T08:15:02.136Z,11.32
2023-01-31T08:20:08.343Z,11.59
2023-01-31T08:25:11.840Z,11.69
2023-01-31T08:30:15.905Z,11.67
2023-01-31T08:35:19.349Z,11.84
2023-01-31T08:40:22.870Z,11.90
2023-01-31T08:45:26.515Z,11.75
2023-01-31T08:50:31.588Z,11.91
2023-01-31T08:55:36.875Z,12.44
2023-01-31T09:00:40.639Z,12.55
2023-01-31T09:05:45.043Z,12.65
2023-01-31T09:10:53.098Z,12.81
2023-01-31T09:16:05.412Z,12.67
2023-01-31T09:21:16.029Z,12.75
2023-01-31T09:26:19.280Z,13.02
2023-01-31T09:31:22.202Z,13.04
2023-01-31T09:36:25.291Z,12.87
2023-01-31T09:41:31.948Z,12.77
2023-01-31T09:46:45.114Z,12.50
2023-01-31T09:51:52.022Z,12.16
2023-01-31T09:57:00.379Z,12.09
2023-01-31T10:02:15.456Z,12.26
2023-01-31T10:07:32.183Z,12.76
2023-01-31T10:12:46.072Z,12.74
2023-01-31T10:18:12.851Z,11.43
2023-01-31T10:23:25.596Z,9.98
2023-01-31T10:28:40.918Z,9.72
2023-01-31T10:33:56.894Z,10.00
2023-01-31T10:39:20.827Z,10.07
2023-01-31T10:44:52.395Z,10.11
2023-01-31T10:49:56.361Z,10.27
2023-01-31T10:55:37.864Z,10.77
2023-01-31T11:00:41.232Z,11.19
2023-01-31T11:05:53.143Z,11.21
2023-01-31T11:10:58.184Z,11.21
2023-01-31T11:16:03.545Z,11.28
2023-01-31T11:21:08.270Z,11.24
2023-01-31T11:26:12.943Z,11.17
2023-01-31T11:31:21.438Z,11.12
2023-01-31T11:36:25.860Z,11.27
2023-01-31T11:41:37.582Z,11.78
2023-01-31T11:47:03.831Z,12.19
2023-01-31T11:52:18.833Z,12.27
2023-01-31T11:57:27.816Z,12.21
2023-01-31T12:02:41.977Z,12.07
2023-01-31T12:07:51.578Z,12.03
2023-01-31T12:13:16.416Z,12.17
2023-01-31T12:18:49.664Z,12.10
2023-01-31T12:24:12.302Z,12.06
2023-01-31T12:29:42.351Z,11.87
2023-01-31T12:34:59.583Z,11.84
2023-01-31T12:40:26.909Z,11.93
2023-01-31T12:45:34.795Z,12.20
2023-01-31T12:50:52.811Z,12.64
2023-01-31T12:55:55.934Z,12.93
2023-01-31T13:01:04.956Z,13.16
2023-01-31T13:06:15.428Z,12.95
2023-01-31T13:11:25.353Z,12.66
2023-01-31T13:16:47.708Z,12.31
2023-01-31T13:21:57.444Z,11.46
2023-01-31T13:27:23.547Z,10.86
2023-01-31T13:32:36.293Z,10.85
2023-01-31T13:37:43.933Z,10.87
2023-01-31T13:42:50.961Z,11.02
2023-01-31T13:48:00.820Z,11.13
2023-01-31T13:53:07.440Z,11.27
2023-01-31T13:58:34.243Z,11.42
2023-01-31T14:04:18.317Z,11.59
2023-01-31T14:09:32.041Z,11.74
2023-01-31T14:14:35.246Z,11.74
2023-01-31T14:19:44.249Z,11.71
2023-01-31T14:24:47.448Z,11.80
2023-01-31T14:30:54.364Z,11.93
2023-01-31T14:36:26.848Z,12.03
2023-01-31T14:41:57.809Z,12.13
2023-01-31T14:47:08.191Z,12.20
2023-01-31T14:52:22.016Z,12.19
2023-01-31T14:57:30.522Z,12.20
2023-01-31T15:02:33.953Z,12.19
2023-01-31T15:07:57.073Z,12.12
2023-01-31T15:13:00.609Z,12.04
2023-01-31T15:18:16.719Z,11.96
2023-01-31T15:23:26.144Z,11.96
2023-01-31T15:28:40.503Z,11.98
2023-01-31T15:33:49.534Z,11.97
2023-01-31T15:38:58.250Z,11.88
2023-01-31T15:44:24.773Z,11.84
2023-01-31T15:49:40.164Z,11.86
2023-01-31T15:55:05.916Z,11.85
2023-01-31T16:00:23.979Z,11.82
2023-01-31T16:05:37.876Z,11.80
2023-01-31T16:10:43.636Z,11.85
2023-01-31T16:15:49.083Z,11.88
2023-01-31T16:20:55.420Z,11.92
2023-01-31T16:26:26.257Z,11.93
2023-01-31T16:31:33.762Z,11.87
2023-01-31T16:36:50.256Z,11.89
2023-01-31T16:41:57.220Z,11.96
2023-01-31T16:47:01.183Z,12.01
2023-01-31T16:52:28.705Z,12.06
2023-01-31T16:57:31.960Z,12.15
2023-01-31T17:02:41.702Z,12.19
2023-01-31T17:07:47.463Z,12.14
2023-01-31T17:12:53.448Z,12.11
2023-01-31T17:17:59.590Z,12.20
2023-01-31T17:23:08.963Z,12.14
2023-01-31T17:28:14.861Z,11.78
2023-01-31T17:33:17.942Z,10.95
2023-01-31T17:38:21.099Z,10.42
2023-01-31T17:43:24.760Z,10.14
2023-01-31T17:48:29.299Z,10.04
2023-01-31T17:53:37.422Z,9.98
2023-01-31T17:58:43.987Z,9.99
2023-01-31T18:03:47.280Z,10.07
2023-01-31T18:08:52.483Z,10.13
2023-01-31T18:13:59.325Z,10.27
2023-01-31T18:19:06.747Z,10.46
2023-01-31T18:24:10.865Z,10.59
2023-01-31T18:29:15.538Z,10.71
2023-01-31T18:34:18.787Z,10.75
2023-01-31T18:39:22.083Z,10.25
2023-01-31T18:44:25.271Z,10.11
2023-01-31T18:49:28.403Z,10.23
2023-01-31T18:54:34.458Z,10.42
2023-01-31T18:59:37.567Z,10.59
2023-01-31T19:04:40.875Z,10.72
2023-01-31T19:09:44.075Z,10.55
2023-01-31T19:14:48.348Z,10.43
2023-01-31T19:19:52.331Z,10.36
2023-01-31T19:24:55.819Z,10.29
2023-01-31T19:29:59.176Z,10.19
2023-01-31T19:35:02.330Z,10.11
2023-01-31T19:40:05.972Z,10.09
2023-01-31T19:45:10.156Z,10.14
2023-01-31T19:50:13.364Z,10.18
2023-01-31T19:55:16.433Z,10.29
2023-01-31T20:00:20.935Z,10.54
2023-01-31T20:05:24.699Z,10.75
2023-01-31T20:10:27.974Z,10.80
2023-01-31T20:15:31.693Z,10.71
2023-01-31T20:20:34.875Z,10.75
2023-01-31T20:25:38.238Z,10.80
2023-01-31T20:30:41.614Z,10.83
2023-01-31T20:35:44.832Z,10.84
2023-01-31T20:40:54.426Z,10.85
2023-01-31T20:46:10.106Z,10.80
2023-01-31T20:51:13.647Z,10.10
2023-01-31T20:56:17.011Z,9.77
2023-01-31T21:01:20.242Z,9.75
2023-01-31T21:06:23.154Z,9.82
2023-01-31T21:11:27.492Z,9.85
2023-01-31T21:16:31.080Z,9.87
2023-01-31T21:21:34.178Z,9.87
2023-01-31T21:26:37.363Z,9.87
2023-01-31T21:31:40.717Z,9.89
2023-01-31T21:36:45.724Z,9.94
2023-01-31T21:41:49.018Z,10.04
2023-01-31T21:46:52.387Z,10.09
2023-01-31T21:51:55.436Z,10.15
2023-01-31T21:56:58.859Z,10.23
2023-01-31T22:02:02.211Z,10.29
2023-01-31T22:07:05.307Z,10.31
2023-01-31T22:12:08.394Z,10.39
2023-01-31T22:17:11.658Z,10.45
2023-01-31T22:22:15.226Z,10.50
2023-01-31T22:27:18.586Z,10.57
2023-01-31T22:32:21.538Z,10.60
2023-01-31T22:37:24.712Z,10.65
2023-01-31T22:42:27.901Z,10.71
2023-01-31T22:47:32.591Z,10.61
2023-01-31T22:52:37.018Z,10.48
2023-01-31T22:57:40.549Z,10.44
2023-01-31T23:02:44.055Z,10.42
2023-01-31T23:07:47.146Z,10.41
2023-01-31T23:12:50.864Z,10.36
2023-01-31T23:17:54.000Z,10.31
2023-01-31T23:22:58.549Z,10.27
2023-01-31T23:28:01.728Z,10.25
2023-01-31T23:33:04.796Z,10.25
2023-01-31T23:38:08.453Z,10.27
2023-01-31T23:43:11.467Z,10.21
2023-01-31T23:48:15.371Z,10.14
2023-01-31T23:53:18.671Z,10.15
2023-01-31T23:58:21.715Z,10.16
